sensor_id;sensor_type;location;lat;lon;timestamp;pressure;altitude;pressure_sealevel;temperature;humidity
72950;BME280;64868;45.710;9.590;2023-05-21T00:02:25;98768.69;;;14.52;86.59
72950;BME280;64868;45.710;9.590;2023-05-21T00:04:56;98757.13;;;14.48;86.30
72950;BME280;64868;45.710;9.590;2023-05-21T00:07:29;98758.44;;;14.54;86.58
72950;BME280;64868;45.710;9.590;2023-05-21T00:10:00;98748.47;;;14.53;85.94
72950;BME280;64868;45.710;9.590;2023-05-21T00:12:30;98754.97;;;14.62;84.98
72950;BME280;64868;45.710;9.590;2023-05-21T00:14:58;98751.25;;;14.63;84.84
72950;BME280;64868;45.710;9.590;2023-05-21T00:17:31;98748.91;;;14.58;85.73
72950;BME280;64868;45.710;9.590;2023-05-21T00:20:03;98743.72;;;14.55;84.92
72950;BME280;64868;45.710;9.590;2023-05-21T00:22:37;98743.72;;;14.55;85.34
72950;BME280;64868;45.710;9.590;2023-05-21T00:25:09;98736.50;;;14.54;84.75
72950;BME280;64868;45.710;9.590;2023-05-21T00:27:41;98738.09;;;14.56;85.26
72950;BME280;64868;45.710;9.590;2023-05-21T00:30:14;98736.22;;;14.57;84.76
72950;BME280;64868;45.710;9.590;2023-05-21T00:32:47;98732.88;;;14.53;84.32
72950;BME280;64868;45.710;9.590;2023-05-21T00:35:17;98737.06;;;14.57;84.84
72950;BME280;64868;45.710;9.590;2023-05-21T00:37:47;98727.28;;;14.55;84.87
72950;BME280;64868;45.710;9.590;2023-05-21T00:40:19;98721.78;;;14.55;85.20
72950;BME280;64868;45.710;9.590;2023-05-21T00:42:52;98721.06;;;14.53;85.16
72950;BME280;64868;45.710;9.590;2023-05-21T00:45:22;98716.59;;;14.52;84.66
72950;BME280;64868;45.710;9.590;2023-05-21T00:47:52;98718.88;;;14.56;84.42
72950;BME280;64868;45.710;9.590;2023-05-21T00:50:25;98712.66;;;14.54;84.24
72950;BME280;64868;45.710;9.590;2023-05-21T00:52:58;98711.97;;;14.52;83.70
72950;BME280;64868;45.710;9.590;2023-05-21T00:55:30;98707.91;;;14.56;84.14
72950;BME280;64868;45.710;9.590;2023-05-21T00:58:00;98712.38;;;14.57;84.35
72950;BME280;64868;45.710;9.590;2023-05-21T01:00:35;98712.97;;;14.61;84.73
72950;BME280;64868;45.710;9.590;2023-05-21T01:03:07;98706.88;;;14.57;84.31
72950;BME280;64868;45.710;9.590;2023-05-21T01:05:40;98705.00;;;14.58;84.28
72950;BME280;64868;45.710;9.590;2023-05-21T01:08:14;98701.41;;;14.57;83.58
72950;BME280;64868;45.710;9.590;2023-05-21T01:10:46;98705.91;;;14.58;83.60
72950;BME280;64868;45.710;9.590;2023-05-21T01:13:16;98706.75;;;14.59;84.08
72950;BME280;64868;45.710;9.590;2023-05-21T01:15:47;98711.06;;;14.62;83.59
72950;BME280;64868;45.710;9.590;2023-05-21T01:18:20;98696.78;;;14.58;83.95
72950;BME280;64868;45.710;9.590;2023-05-21T01:20:53;98707.34;;;14.63;83.76
72950;BME280;64868;45.710;9.590;2023-05-21T01:23:23;98703.56;;;14.64;83.32
72950;BME280;64868;45.710;9.590;2023-05-21T01:25:53;98687.97;;;14.64;82.39
72950;BME280;64868;45.710;9.590;2023-05-21T01:28:26;98694.75;;;14.70;82.95
72950;BME280;64868;45.710;9.590;2023-05-21T01:30:59;98692.31;;;14.67;82.98
72950;BME280;64868;45.710;9.590;2023-05-21T01:33:50;98694.03;;;14.68;82.51
72950;BME280;64868;45.710;9.590;2023-05-21T01:36:31;98677.88;;;14.65;81.88
72950;BME280;64868;45.710;9.590;2023-05-21T01:39:11;98687.13;;;14.64;82.28
72950;BME280;64868;45.710;9.590;2023-05-21T01:41:46;98685.94;;;14.76;81.54
72950;BME280;64868;45.710;9.590;2023-05-21T01:44:21;98689.72;;;14.75;81.77
72950;BME280;64868;45.710;9.590;2023-05-21T01:46:51;98676.56;;;14.69;82.02
72950;BME280;64868;45.710;9.590;2023-05-21T01:49:25;98675.84;;;14.67;82.12
72950;BME280;64868;45.710;9.590;2023-05-21T01:51:58;98676.84;;;14.66;81.60
72950;BME280;64868;45.710;9.590;2023-05-21T01:54:30;98671.22;;;14.67;81.98
72950;BME280;64868;45.710;9.590;2023-05-21T01:57:03;98668.19;;;14.70;82.52
72950;BME280;64868;45.710;9.590;2023-05-21T01:59:36;98668.47;;;14.67;81.79
72950;BME280;64868;45.710;9.590;2023-05-21T02:02:06;98664.31;;;14.63;81.84
72950;BME280;64868;45.710;9.590;2023-05-21T02:04:36;98670.38;;;14.67;81.60
72950;BME280;64868;45.710;9.590;2023-05-21T02:07:09;98672.94;;;14.68;81.47
72950;BME280;64868;45.710;9.590;2023-05-21T02:09:40;98663.84;;;14.68;81.72
72950;BME280;64868;45.710;9.590;2023-05-21T02:12:10;98664.03;;;14.66;81.48
72950;BME280;64868;45.710;9.590;2023-05-21T02:14:42;98678.00;;;14.73;81.57
72950;BME280;64868;45.710;9.590;2023-05-21T02:17:15;98666.03;;;14.74;81.70
72950;BME280;64868;45.710;9.590;2023-05-21T02:19:48;98672.22;;;14.76;81.29
72950;BME280;64868;45.710;9.590;2023-05-21T02:22:20;98656.91;;;14.73;80.48
72950;BME280;64868;45.710;9.590;2023-05-21T02:24:53;98667.13;;;14.81;80.58
72950;BME280;64868;45.710;9.590;2023-05-21T02:27:25;98668.91;;;14.82;80.46
72950;BME280;64868;45.710;9.590;2023-05-21T02:30:00;98669.47;;;14.86;80.59
72950;BME280;64868;45.710;9.590;2023-05-21T02:32:30;98668.59;;;14.85;80.60
72950;BME280;64868;45.710;9.590;2023-05-21T02:35:04;98661.25;;;14.76;80.85
72950;BME280;64868;45.710;9.590;2023-05-21T02:37:37;98673.38;;;14.83;80.63
72950;BME280;64868;45.710;9.590;2023-05-21T02:40:10;98666.16;;;14.82;79.96
72950;BME280;64868;45.710;9.590;2023-05-21T02:42:44;98658.03;;;14.80;79.97
72950;BME280;64868;45.710;9.590;2023-05-21T02:45:16;98669.75;;;14.82;80.27
72950;BME280;64868;45.710;9.590;2023-05-21T02:47:49;98678.13;;;14.81;80.67
72950;BME280;64868;45.710;9.590;2023-05-21T02:50:19;98682.88;;;14.89;81.10
72950;BME280;64868;45.710;9.590;2023-05-21T02:52:49;98691.69;;;14.92;79.96
72950;BME280;64868;45.710;9.590;2023-05-21T02:55:22;98694.88;;;14.88;80.06
72950;BME280;64868;45.710;9.590;2023-05-21T02:57:49;98685.38;;;14.82;81.23
72950;BME280;64868;45.710;9.590;2023-05-21T03:00:20;98686.50;;;14.79;81.81
72950;BME280;64868;45.710;9.590;2023-05-21T03:02:50;98687.66;;;14.77;81.33
72950;BME280;64868;45.710;9.590;2023-05-21T03:05:20;98703.28;;;14.67;80.95
72950;BME280;64868;45.710;9.590;2023-05-21T03:07:50;98694.63;;;14.71;80.96
72950;BME280;64868;45.710;9.590;2023-05-21T03:10:22;98711.38;;;14.78;80.49
72950;BME280;64868;45.710;9.590;2023-05-21T03:12:55;98714.41;;;14.65;81.50
72950;BME280;64868;45.710;9.590;2023-05-21T03:15:25;98712.81;;;14.82;80.46
72950;BME280;64868;45.710;9.590;2023-05-21T03:17:58;98712.22;;;14.78;80.95
72950;BME280;64868;45.710;9.590;2023-05-21T03:20:28;98716.84;;;14.88;80.45
72950;BME280;64868;45.710;9.590;2023-05-21T03:23:01;98709.91;;;14.83;80.45
72950;BME280;64868;45.710;9.590;2023-05-21T03:25:33;98707.19;;;14.74;80.91
72950;BME280;64868;45.710;9.590;2023-05-21T03:28:06;98698.06;;;14.83;80.52
72950;BME280;64868;45.710;9.590;2023-05-21T03:30:38;98687.69;;;14.67;81.10
72950;BME280;64868;45.710;9.590;2023-05-21T03:33:09;98706.44;;;14.62;81.67
72950;BME280;64868;45.710;9.590;2023-05-21T03:35:39;98707.75;;;14.58;82.08
72950;BME280;64868;45.710;9.590;2023-05-21T03:38:11;98702.00;;;14.51;82.28
72950;BME280;64868;45.710;9.590;2023-05-21T03:40:44;98707.06;;;14.56;81.86
72950;BME280;64868;45.710;9.590;2023-05-21T03:43:14;98709.06;;;14.64;81.30
72950;BME280;64868;45.710;9.590;2023-05-21T03:45:47;98707.47;;;14.71;80.97
72950;BME280;64868;45.710;9.590;2023-05-21T03:48:20;98706.03;;;14.67;81.87
72950;BME280;64868;45.710;9.590;2023-05-21T03:50:52;98707.47;;;14.61;82.25
72950;BME280;64868;45.710;9.590;2023-05-21T03:53:23;98693.75;;;14.61;82.04
72950;BME280;64868;45.710;9.590;2023-05-21T03:55:56;98700.69;;;14.65;82.08
72950;BME280;64868;45.710;9.590;2023-05-21T03:58:26;98698.78;;;14.66;81.42
72950;BME280;64868;45.710;9.590;2023-05-21T04:00:59;98696.94;;;14.66;81.15
72950;BME280;64868;45.710;9.590;2023-05-21T04:03:31;98702.44;;;14.66;81.50
72950;BME280;64868;45.710;9.590;2023-05-21T04:06:05;98696.94;;;14.66;81.62
72950;BME280;64868;45.710;9.590;2023-05-21T04:08:35;98690.28;;;14.69;81.47
72950;BME280;64868;45.710;9.590;2023-05-21T04:11:05;98686.22;;;14.73;81.68
72950;BME280;64868;45.710;9.590;2023-05-21T04:13:38;98681.19;;;14.68;81.66
72950;BME280;64868;45.710;9.590;2023-05-21T04:16:08;98676.28;;;14.72;81.07
72950;BME280;64868;45.710;9.590;2023-05-21T04:18:40;98688.84;;;14.74;81.98
72950;BME280;64868;45.710;9.590;2023-05-21T04:21:13;98687.81;;;14.75;81.76
72950;BME280;64868;45.710;9.590;2023-05-21T04:23:43;98694.59;;;14.81;82.05
72950;BME280;64868;45.710;9.590;2023-05-21T04:26:13;98685.66;;;14.79;82.50
72950;BME280;64868;45.710;9.590;2023-05-21T04:28:46;98691.72;;;14.82;81.97
72950;BME280;64868;45.710;9.590;2023-05-21T04:31:18;98688.56;;;14.77;81.69
72950;BME280;64868;45.710;9.590;2023-05-21T04:33:51;98700.06;;;14.81;81.50
72950;BME280;64868;45.710;9.590;2023-05-21T04:36:21;98683.94;;;14.78;81.61
72950;BME280;64868;45.710;9.590;2023-05-21T04:38:54;98688.09;;;14.82;81.89
72950;BME280;64868;45.710;9.590;2023-05-21T04:41:27;98680.13;;;14.89;80.96
72950;BME280;64868;45.710;9.590;2023-05-21T04:43:57;98688.50;;;14.97;80.51
72950;BME280;64868;45.710;9.590;2023-05-21T04:46:30;98680.41;;;14.95;79.97
72950;BME280;64868;45.710;9.590;2023-05-21T04:49:05;98684.47;;;15.01;79.19
72950;BME280;64868;45.710;9.590;2023-05-21T04:51:38;98688.47;;;15.06;78.79
72950;BME280;64868;45.710;9.590;2023-05-21T04:54:10;98687.03;;;15.02;79.02
72950;BME280;64868;45.710;9.590;2023-05-21T04:56:43;98692.09;;;15.07;79.75
72950;BME280;64868;45.710;9.590;2023-05-21T04:59:16;98689.91;;;15.11;78.31
72950;BME280;64868;45.710;9.590;2023-05-21T05:01:48;98691.03;;;15.18;77.90
72950;BME280;64868;45.710;9.590;2023-05-21T05:04:21;98689.88;;;15.20;77.11
72950;BME280;64868;45.710;9.590;2023-05-21T05:06:53;98679.59;;;15.22;77.56
72950;BME280;64868;45.710;9.590;2023-05-21T05:09:26;98682.78;;;15.27;77.84
72950;BME280;64868;45.710;9.590;2023-05-21T05:11:59;98678.56;;;15.33;77.78
72950;BME280;64868;45.710;9.590;2023-05-21T05:14:31;98671.34;;;15.32;77.02
72950;BME280;64868;45.710;9.590;2023-05-21T05:17:04;98675.34;;;15.38;77.21
72950;BME280;64868;45.710;9.590;2023-05-21T05:19:34;98672.19;;;15.42;77.01
72950;BME280;64868;45.710;9.590;2023-05-21T05:22:04;98668.41;;;15.43;77.52
72950;BME280;64868;45.710;9.590;2023-05-21T05:24:36;98665.59;;;15.53;76.02
72950;BME280;64868;45.710;9.590;2023-05-21T05:27:09;98665.75;;;15.51;76.35
72950;BME280;64868;45.710;9.590;2023-05-21T05:29:42;98673.06;;;15.61;76.15
72950;BME280;64868;45.710;9.590;2023-05-21T05:32:14;98668.13;;;15.64;75.26
72950;BME280;64868;45.710;9.590;2023-05-21T05:34:47;98665.97;;;15.68;76.06
72950;BME280;64868;45.710;9.590;2023-05-21T05:37:20;98656.97;;;15.75;75.34
72950;BME280;64868;45.710;9.590;2023-05-21T05:39:50;98653.78;;;15.80;75.42
72950;BME280;64868;45.710;9.590;2023-05-21T05:42:20;98660.63;;;15.76;76.04
72950;BME280;64868;45.710;9.590;2023-05-21T05:44:53;98669.84;;;15.75;76.08
72950;BME280;64868;45.710;9.590;2023-05-21T05:47:25;98663.38;;;15.76;75.19
72950;BME280;64868;45.710;9.590;2023-05-21T05:49:58;98660.84;;;15.82;74.57
72950;BME280;64868;45.710;9.590;2023-05-21T05:52:31;98656.63;;;15.88;74.92
72950;BME280;64868;45.710;9.590;2023-05-21T05:55:03;98655.03;;;15.86;74.62
72950;BME280;64868;45.710;9.590;2023-05-21T05:57:33;98661.81;;;15.91;75.35
72950;BME280;64868;45.710;9.590;2023-05-21T06:00:04;98657.47;;;15.89;74.55
72950;BME280;64868;45.710;9.590;2023-05-21T06:02:38;98663.69;;;15.91;74.23
72950;BME280;64868;45.710;9.590;2023-05-21T06:05:11;98660.16;;;15.98;74.63
72950;BME280;64868;45.710;9.590;2023-05-21T06:07:44;98662.28;;;16.04;73.49
72950;BME280;64868;45.710;9.590;2023-05-21T06:10:16;98641.47;;;16.02;73.92
72950;BME280;64868;45.710;9.590;2023-05-21T06:12:49;98645.78;;;16.04;73.95
72950;BME280;64868;45.710;9.590;2023-05-21T06:15:19;98650.19;;;16.15;73.12
72950;BME280;64868;45.710;9.590;2023-05-21T06:17:52;98643.69;;;16.34;72.61
72950;BME280;64868;45.710;9.590;2023-05-21T06:20:22;98646.97;;;16.56;71.86
72950;BME280;64868;45.710;9.590;2023-05-21T06:22:55;98640.00;;;16.69;70.89
72950;BME280;64868;45.710;9.590;2023-05-21T06:25:28;98635.81;;;16.75;71.50
72950;BME280;64868;45.710;9.590;2023-05-21T06:28:00;98639.28;;;16.85;71.00
72950;BME280;64868;45.710;9.590;2023-05-21T06:30:33;98636.78;;;16.92;71.11
72950;BME280;64868;45.710;9.590;2023-05-21T06:33:03;98628.56;;;17.00;70.17
72950;BME280;64868;45.710;9.590;2023-05-21T06:35:36;98644.88;;;16.93;70.50
72950;BME280;64868;45.710;9.590;2023-05-21T06:38:08;98645.25;;;16.98;70.58
72950;BME280;64868;45.710;9.590;2023-05-21T06:40:38;98629.06;;;16.95;70.81
72950;BME280;64868;45.710;9.590;2023-05-21T06:43:11;98627.06;;;17.06;69.49
72950;BME280;64868;45.710;9.590;2023-05-21T06:45:44;98639.63;;;17.08;69.04
72950;BME280;64868;45.710;9.590;2023-05-21T06:48:16;98648.09;;;17.15;69.07
72950;BME280;64868;45.710;9.590;2023-05-21T06:50:49;98652.25;;;17.19;69.42
72950;BME280;64868;45.710;9.590;2023-05-21T06:53:22;98647.69;;;17.27;69.93
72950;BME280;64868;45.710;9.590;2023-05-21T06:55:54;98641.78;;;17.22;69.85
72950;BME280;64868;45.710;9.590;2023-05-21T06:58:22;98648.69;;;17.26;70.32
72950;BME280;64868;45.710;9.590;2023-05-21T07:00:55;98648.25;;;17.39;70.16
72950;BME280;64868;45.710;9.590;2023-05-21T07:03:22;98646.56;;;17.46;69.54
72950;BME280;64868;45.710;9.590;2023-05-21T07:05:55;98655.59;;;17.65;69.22
72950;BME280;64868;45.710;9.590;2023-05-21T07:08:25;98645.91;;;17.52;69.41
72950;BME280;64868;45.710;9.590;2023-05-21T07:10:58;98662.50;;;17.69;68.43
72950;BME280;64868;45.710;9.590;2023-05-21T07:13:26;98648.28;;;17.82;68.45
72950;BME280;64868;45.710;9.590;2023-05-21T07:15:56;98652.88;;;18.15;66.92
72950;BME280;64868;45.710;9.590;2023-05-21T07:18:26;98652.91;;;18.48;66.99
72950;BME280;64868;45.710;9.590;2023-05-21T07:20:58;98659.16;;;18.75;66.09
72950;BME280;64868;45.710;9.590;2023-05-21T07:23:29;98652.06;;;19.05;65.59
72950;BME280;64868;45.710;9.590;2023-05-21T07:26:01;98652.22;;;19.11;64.99
72950;BME280;64868;45.710;9.590;2023-05-21T07:28:32;98650.31;;;19.12;65.81
72950;BME280;64868;45.710;9.590;2023-05-21T07:31:04;98657.22;;;19.08;65.56
72950;BME280;64868;45.710;9.590;2023-05-21T07:33:37;98651.53;;;19.17;65.05
72950;BME280;64868;45.710;9.590;2023-05-21T07:36:09;98643.25;;;19.09;65.52
72950;BME280;64868;45.710;9.590;2023-05-21T07:38:40;98658.63;;;18.95;66.28
72950;BME280;64868;45.710;9.590;2023-05-21T07:41:12;98658.63;;;18.95;66.10
72950;BME280;64868;45.710;9.590;2023-05-21T07:43:43;98656.06;;;18.78;67.22
72950;BME280;64868;45.710;9.590;2023-05-21T07:46:15;98657.75;;;18.62;66.40
72950;BME280;64868;45.710;9.590;2023-05-21T07:48:48;98653.59;;;18.50;67.07
72950;BME280;64868;45.710;9.590;2023-05-21T07:51:20;98661.69;;;18.52;67.38
72950;BME280;64868;45.710;9.590;2023-05-21T07:53:50;98661.38;;;18.55;67.40
72950;BME280;64868;45.710;9.590;2023-05-21T07:56:23;98653.78;;;18.57;67.69
72950;BME280;64868;45.710;9.590;2023-05-21T07:58:56;98651.53;;;18.68;67.45
72950;BME280;64868;45.710;9.590;2023-05-21T08:01:26;98660.88;;;18.92;67.74
72950;BME280;64868;45.710;9.590;2023-05-21T08:03:56;98668.13;;;19.09;66.33
72950;BME280;64868;45.710;9.590;2023-05-21T08:06:29;98668.97;;;19.18;66.54
72950;BME280;64868;45.710;9.590;2023-05-21T08:09:02;98666.75;;;19.13;67.77
72950;BME280;64868;45.710;9.590;2023-05-21T08:11:34;98663.09;;;19.21;66.42
72950;BME280;64868;45.710;9.590;2023-05-21T08:14:02;98670.88;;;19.17;66.06
72950;BME280;64868;45.710;9.590;2023-05-21T08:16:35;98670.53;;;18.96;66.69
72950;BME280;64868;45.710;9.590;2023-05-21T08:19:07;98673.16;;;18.73;66.81
72950;BME280;64868;45.710;9.590;2023-05-21T08:21:40;98678.97;;;18.54;66.81
72950;BME280;64868;45.710;9.590;2023-05-21T08:24:13;98688.22;;;18.20;68.40
72950;BME280;64868;45.710;9.590;2023-05-21T08:26:45;98692.78;;;17.95;68.80
72950;BME280;64868;45.710;9.590;2023-05-21T08:29:15;98706.09;;;17.65;69.67
72950;BME280;64868;45.710;9.590;2023-05-21T08:31:46;98721.50;;;17.50;70.07
72950;BME280;64868;45.710;9.590;2023-05-21T08:34:16;98740.16;;;17.30;69.65
72950;BME280;64868;45.710;9.590;2023-05-21T08:36:44;98760.00;;;17.34;70.09
72950;BME280;64868;45.710;9.590;2023-05-21T08:39:17;98761.41;;;17.38;70.18
72950;BME280;64868;45.710;9.590;2023-05-21T08:41:51;98760.72;;;17.62;69.53
72950;BME280;64868;45.710;9.590;2023-05-21T08:44:31;98755.66;;;17.83;69.79
72950;BME280;64868;45.710;9.590;2023-05-21T08:47:01;98758.34;;;18.01;70.26
72950;BME280;64868;45.710;9.590;2023-05-21T08:49:29;98762.38;;;18.15;70.21
72950;BME280;64868;45.710;9.590;2023-05-21T08:52:06;98763.97;;;17.91;68.73
72950;BME280;64868;45.710;9.590;2023-05-21T08:54:39;98756.47;;;18.10;69.44
72950;BME280;64868;45.710;9.590;2023-05-21T08:57:07;98747.38;;;18.17;70.31
72950;BME280;64868;45.710;9.590;2023-05-21T08:59:41;98738.25;;;18.25;70.65
72950;BME280;64868;45.710;9.590;2023-05-21T09:02:12;98717.22;;;18.24;70.01
72950;BME280;64868;45.710;9.590;2023-05-21T09:04:40;98723.44;;;18.26;69.87
72950;BME280;64868;45.710;9.590;2023-05-21T09:07:11;98714.66;;;18.31;70.00
72950;BME280;64868;45.710;9.590;2023-05-21T09:09:48;98725.91;;;18.54;70.98
72950;BME280;64868;45.710;9.590;2023-05-21T09:12:20;98722.00;;;18.73;70.01
72950;BME280;64868;45.710;9.590;2023-05-21T09:14:50;98716.13;;;18.76;69.25
72950;BME280;64868;45.710;9.590;2023-05-21T09:17:20;98728.72;;;18.86;68.57
72950;BME280;64868;45.710;9.590;2023-05-21T09:20:14;98728.22;;;18.99;68.68
72950;BME280;64868;45.710;9.590;2023-05-21T09:22:46;98727.53;;;19.22;68.61
72950;BME280;64868;45.710;9.590;2023-05-21T09:25:19;98729.00;;;19.57;66.64
72950;BME280;64868;45.710;9.590;2023-05-21T09:27:51;98732.38;;;19.91;65.94
72950;BME280;64868;45.710;9.590;2023-05-21T09:30:24;98738.13;;;20.83;63.27
72950;BME280;64868;45.710;9.590;2023-05-21T09:32:56;98740.97;;;21.59;60.27
72950;BME280;64868;45.710;9.590;2023-05-21T09:35:30;98736.13;;;22.20;57.85
72950;BME280;64868;45.710;9.590;2023-05-21T09:38:09;98733.31;;;22.71;55.20
72950;BME280;64868;45.710;9.590;2023-05-21T09:40:42;98742.13;;;22.75;54.33
72950;BME280;64868;45.710;9.590;2023-05-21T09:43:14;98741.72;;;22.93;53.61
72950;BME280;64868;45.710;9.590;2023-05-21T09:45:59;98747.81;;;22.67;54.83
72950;BME280;64868;45.710;9.590;2023-05-21T09:48:41;98747.31;;;22.99;54.39
72950;BME280;64868;45.710;9.590;2023-05-21T09:51:13;98755.81;;;23.13;53.68
72950;BME280;64868;45.710;9.590;2023-05-21T09:53:49;98734.47;;;23.41;53.68
72950;BME280;64868;45.710;9.590;2023-05-21T09:56:22;98735.94;;;23.65;52.60
72950;BME280;64868;45.710;9.590;2023-05-21T09:58:53;98735.75;;;24.01;50.25
72950;BME280;64868;45.710;9.590;2023-05-21T10:01:21;98736.66;;;24.09;50.51
72950;BME280;64868;45.710;9.590;2023-05-21T10:03:56;98736.06;;;24.13;49.37
72950;BME280;64868;45.710;9.590;2023-05-21T10:06:27;98730.50;;;24.13;49.78
72950;BME280;64868;45.710;9.590;2023-05-21T10:09:00;98720.06;;;23.94;48.58
72950;BME280;64868;45.710;9.590;2023-05-21T10:11:31;98732.06;;;23.88;47.78
72950;BME280;64868;45.710;9.590;2023-05-21T10:14:04;98727.13;;;23.90;48.17
72950;BME280;64868;45.710;9.590;2023-05-21T10:16:36;98714.66;;;24.20;48.34
72950;BME280;64868;45.710;9.590;2023-05-21T10:19:05;98715.75;;;24.26;47.64
72950;BME280;64868;45.710;9.590;2023-05-21T10:21:39;98718.38;;;24.34;47.63
72950;BME280;64868;45.710;9.590;2023-05-21T10:24:12;98717.00;;;24.17;49.19
72950;BME280;64868;45.710;9.590;2023-05-21T10:26:46;98717.00;;;24.17;49.66
72950;BME280;64868;45.710;9.590;2023-05-21T10:29:20;98722.38;;;24.18;49.22
72950;BME280;64868;45.710;9.590;2023-05-21T10:31:53;98713.47;;;23.95;50.37
72950;BME280;64868;45.710;9.590;2023-05-21T10:34:23;98714.19;;;23.26;51.02
72950;BME280;64868;45.710;9.590;2023-05-21T10:36:55;98717.09;;;23.11;52.39
72950;BME280;64868;45.710;9.590;2023-05-21T10:39:27;98707.00;;;23.31;51.29
72950;BME280;64868;45.710;9.590;2023-05-21T10:45:20;98711.28;;;23.90;50.37
72950;BME280;64868;45.710;9.590;2023-05-21T10:50:53;98714.16;;;24.45;47.71
72950;BME280;64868;45.710;9.590;2023-05-21T10:53:54;98720.25;;;24.75;47.29
72950;BME280;64868;45.710;9.590;2023-05-21T10:56:40;98706.56;;;25.00;46.18
72950;BME280;64868;45.710;9.590;2023-05-21T10:59:15;98704.41;;;24.89;47.40
72950;BME280;64868;45.710;9.590;2023-05-21T11:01:52;98703.19;;;25.11;46.33
72950;BME280;64868;45.710;9.590;2023-05-21T11:04:31;98703.63;;;25.41;44.94
72950;BME280;64868;45.710;9.590;2023-05-21T11:07:01;98685.97;;;25.94;45.27
72950;BME280;64868;45.710;9.590;2023-05-21T11:09:33;98692.38;;;26.08;44.56
72950;BME280;64868;45.710;9.590;2023-05-21T11:12:07;98688.00;;;26.25;43.47
72950;BME280;64868;45.710;9.590;2023-05-21T11:14:45;98692.16;;;26.67;42.21
72950;BME280;64868;45.710;9.590;2023-05-21T11:17:38;98694.97;;;26.92;41.35
72950;BME280;64868;45.710;9.590;2023-05-21T11:20:12;98693.53;;;26.45;41.24
72950;BME280;64868;45.710;9.590;2023-05-21T11:22:40;98687.72;;;26.40;42.03
72950;BME280;64868;45.710;9.590;2023-05-21T11:25:11;98683.16;;;25.94;44.09
72950;BME280;64868;45.710;9.590;2023-05-21T11:27:40;98679.78;;;25.52;44.53
72950;BME280;64868;45.710;9.590;2023-05-21T11:30:11;98683.84;;;25.63;44.02
72950;BME280;64868;45.710;9.590;2023-05-21T11:35:59;98678.41;;;26.01;42.75
72950;BME280;64868;45.710;9.590;2023-05-21T11:38:29;98681.72;;;25.65;42.49
72950;BME280;64868;45.710;9.590;2023-05-21T11:41:03;98675.69;;;25.61;43.49
72950;BME280;64868;45.710;9.590;2023-05-21T11:43:39;98654.69;;;25.39;43.63
72950;BME280;64868;45.710;9.590;2023-05-21T11:46:13;98675.69;;;25.48;43.16
72950;BME280;64868;45.710;9.590;2023-05-21T11:48:45;98668.19;;;25.15;43.26
72950;BME280;64868;45.710;9.590;2023-05-21T11:51:19;98664.75;;;25.27;43.86
72950;BME280;64868;45.710;9.590;2023-05-21T11:53:52;98666.66;;;25.53;42.56
72950;BME280;64868;45.710;9.590;2023-05-21T11:56:24;98662.41;;;25.37;43.86
72950;BME280;64868;45.710;9.590;2023-05-21T11:59:03;98658.50;;;25.64;43.38
72950;BME280;64868;45.710;9.590;2023-05-21T12:01:35;98658.94;;;25.81;42.91
72950;BME280;64868;45.710;9.590;2023-05-21T12:04:08;98653.25;;;26.08;42.06
72950;BME280;64868;45.710;9.590;2023-05-21T12:06:44;98638.88;;;25.98;41.90
72950;BME280;64868;45.710;9.590;2023-05-21T12:09:14;98650.06;;;25.98;40.29
72950;BME280;64868;45.710;9.590;2023-05-21T12:11:47;98657.25;;;25.47;42.00
72950;BME280;64868;45.710;9.590;2023-05-21T12:14:19;98652.97;;;25.31;42.33
72950;BME280;64868;45.710;9.590;2023-05-21T12:16:50;98647.56;;;25.56;42.09
72950;BME280;64868;45.710;9.590;2023-05-21T12:19:22;98658.84;;;26.01;41.00
72950;BME280;64868;45.710;9.590;2023-05-21T12:21:55;98642.94;;;26.08;41.47
72950;BME280;64868;45.710;9.590;2023-05-21T12:24:28;98642.88;;;26.22;40.24
72950;BME280;64868;45.710;9.590;2023-05-21T12:27:02;98640.84;;;26.42;39.98
72950;BME280;64868;45.710;9.590;2023-05-21T12:29:38;98639.19;;;26.73;40.82
72950;BME280;64868;45.710;9.590;2023-05-21T12:32:12;98648.56;;;26.85;40.06
72950;BME280;64868;45.710;9.590;2023-05-21T12:34:55;98649.50;;;27.04;39.56
72950;BME280;64868;45.710;9.590;2023-05-21T12:37:26;98642.44;;;27.26;38.83
72950;BME280;64868;45.710;9.590;2023-05-21T12:39:58;98647.88;;;27.21;38.21
72950;BME280;64868;45.710;9.590;2023-05-21T12:42:28;98642.97;;;26.85;38.99
72950;BME280;64868;45.710;9.590;2023-05-21T12:45:06;98639.75;;;26.81;39.06
72950;BME280;64868;45.710;9.590;2023-05-21T12:47:36;98627.38;;;26.96;39.23
72950;BME280;64868;45.710;9.590;2023-05-21T12:50:10;98628.16;;;27.09;39.10
72950;BME280;64868;45.710;9.590;2023-05-21T12:52:45;98628.09;;;27.16;38.01
72950;BME280;64868;45.710;9.590;2023-05-21T12:55:17;98618.47;;;26.80;35.93
72950;BME280;64868;45.710;9.590;2023-05-21T12:57:48;98629.44;;;27.13;37.61
72950;BME280;64868;45.710;9.590;2023-05-21T13:00:24;98622.06;;;27.19;37.25
72950;BME280;64868;45.710;9.590;2023-05-21T13:02:52;98628.66;;;27.50;35.55
72950;BME280;64868;45.710;9.590;2023-05-21T13:05:25;98625.25;;;27.48;34.43
72950;BME280;64868;45.710;9.590;2023-05-21T13:07:55;98629.66;;;27.37;34.03
72950;BME280;64868;45.710;9.590;2023-05-21T13:10:28;98627.50;;;27.39;34.83
72950;BME280;64868;45.710;9.590;2023-05-21T13:12:58;98624.28;;;27.54;34.89
72950;BME280;64868;45.710;9.590;2023-05-21T13:15:30;98618.88;;;27.59;34.55
72950;BME280;64868;45.710;9.590;2023-05-21T13:18:01;98615.06;;;27.72;35.09
72950;BME280;64868;45.710;9.590;2023-05-21T13:20:33;98612.06;;;27.73;33.81
72950;BME280;64868;45.710;9.590;2023-05-21T13:23:03;98605.00;;;27.46;34.97
72950;BME280;64868;45.710;9.590;2023-05-21T13:25:34;98611.56;;;27.58;35.12
72950;BME280;64868;45.710;9.590;2023-05-21T13:28:06;98614.00;;;27.91;34.21
72950;BME280;64868;45.710;9.590;2023-05-21T13:30:39;98609.53;;;27.65;34.59
72950;BME280;64868;45.710;9.590;2023-05-21T13:33:09;98599.66;;;27.62;35.20
72950;BME280;64868;45.710;9.590;2023-05-21T13:35:41;98614.91;;;27.67;35.62
72950;BME280;64868;45.710;9.590;2023-05-21T13:38:14;98625.38;;;27.96;33.72